createdAt,value
2023-02-18T00:01:38.958Z,4.50
2023-02-18T00:06:42.494Z,3.20
2023-02-18T00:11:45.996Z,2.80
2023-02-18T00:16:49.646Z,3.00
2023-02-18T00:21:53.272Z,2.60
2023-02-18T00:26:57.810Z,3.10
2023-02-18T00:32:01.523Z,3.10
2023-02-18T00:37:05.644Z,3.00
2023-02-18T00:42:09.300Z,3.10
2023-02-18T00:47:12.933Z,2.00
2023-02-18T00:52:16.346Z,3.10
2023-02-18T00:57:19.944Z,3.70
2023-02-18T01:02:26.968Z,3.90
2023-02-18T01:07:30.643Z,5.60
2023-02-18T01:12:34.321Z,4.30
2023-02-18T01:17:38.057Z,4.20
2023-02-18T01:22:42.429Z,4.90
2023-02-18T01:27:46.151Z,3.50
2023-02-18T01:54:46.171Z,5.30
2023-02-18T02:00:00.508Z,3.60
2023-02-18T02:05:04.748Z,2.80
2023-02-18T02:10:10.579Z,3.90
2023-02-18T02:16:11.046Z,2.90
2023-02-18T02:21:48.820Z,3.50
2023-02-18T02:27:20.617Z,3.70
2023-02-18T02:32:33.286Z,4.00
2023-02-18T02:37:59.564Z,5.20
2023-02-18T02:43:03.097Z,4.90
2023-02-18T02:49:02.992Z,3.70
2023-02-18T02:54:23.703Z,2.40
2023-02-18T02:59:27.663Z,3.10
2023-02-18T03:04:52.597Z,2.60
2023-02-18T03:10:18.899Z,3.60
2023-02-18T03:16:18.804Z,3.70
2023-02-18T03:21:50.272Z,3.10
2023-02-18T03:27:29.826Z,2.80
2023-02-18T03:32:35.981Z,3.20
2023-02-18T03:37:50.193Z,3.20
2023-02-18T03:42:53.999Z,3.10
2023-02-18T03:47:57.839Z,4.10
2023-02-18T03:53:01.776Z,4.40
2023-02-18T03:58:05.403Z,2.40
2023-02-18T04:03:09.235Z,3.30
2023-02-18T04:08:12.857Z,3.80
2023-02-18T04:13:18.278Z,3.00
2023-02-18T04:18:22.579Z,2.80
2023-02-18T04:23:26.823Z,3.10
2023-02-18T04:28:30.653Z,2.70
2023-02-18T04:33:34.602Z,2.80
2023-02-18T04:39:03.105Z,2.70
2023-02-18T04:44:06.931Z,3.00
2023-02-18T04:49:10.547Z,2.80
2023-02-18T04:54:14.286Z,3.30
2023-02-18T04:59:20.272Z,2.20
2023-02-18T05:04:49.431Z,2.20
2023-02-18T05:14:59.730Z,2.10
2023-02-18T05:20:04.769Z,2.30
2023-02-18T05:26:30.602Z,2.20
2023-02-18T05:32:11.487Z,2.40
2023-02-18T05:37:15.472Z,2.60
2023-02-18T05:42:19.041Z,3.10
2023-02-18T05:48:14.224Z,3.20
2023-02-18T06:03:38.038Z,8.50
2023-02-18T06:08:41.691Z,16.90
2023-02-18T06:13:51.295Z,6.10
2023-02-18T06:40:48.452Z,8.90
2023-02-18T06:46:17.673Z,15.50
2023-02-18T06:51:21.513Z,8.30
2023-02-18T06:56:25.613Z,10.20
2023-02-18T07:01:29.244Z,9.40
2023-02-18T07:06:58.067Z,5.60
2023-02-18T07:12:02.191Z,6.60
2023-02-18T07:17:05.813Z,5.40
2023-02-18T07:22:09.670Z,5.00
2023-02-18T07:27:13.542Z,7.20
2023-02-18T07:33:33.946Z,3.90
2023-02-18T07:38:37.500Z,4.70
2023-02-18T07:50:46.664Z,3.70
2023-02-18T07:55:50.289Z,5.50
2023-02-18T08:00:56.577Z,4.30
2023-02-18T08:06:51.642Z,4.40
2023-02-18T08:11:55.577Z,4.00
2023-02-18T08:16:59.519Z,4.50
2023-02-18T08:22:03.617Z,5.20
2023-02-18T08:35:17.886Z,4.30
2023-02-18T08:40:21.890Z,4.50
2023-02-18T08:45:26.152Z,4.50
2023-02-18T08:58:58.844Z,6.10
2023-02-18T09:04:02.445Z,3.50
2023-02-18T09:09:56.474Z,4.80
2023-02-18T09:15:27.065Z,3.10
2023-02-18T09:20:30.974Z,4.20
2023-02-18T09:25:34.727Z,3.70
2023-02-18T09:30:40.641Z,6.30
2023-02-18T09:36:02.064Z,6.90
2023-02-18T09:41:19.783Z,4.20
2023-02-18T09:46:33.087Z,5.60
2023-02-18T09:51:37.293Z,4.80
2023-02-18T09:56:42.547Z,4.20
2023-02-18T10:01:52.555Z,6.40
2023-02-18T10:06:58.852Z,5.40
2023-02-18T10:12:31.213Z,7.60
2023-02-18T10:25:07.422Z,9.90
2023-02-18T10:41:04.304Z,5.50
2023-02-18T10:46:27.176Z,4.50
2023-02-18T10:51:36.386Z,5.80
2023-02-18T10:56:52.425Z,4.20
2023-02-18T11:02:01.358Z,5.80
2023-02-18T11:07:14.769Z,4.50
2023-02-18T11:42:30.218Z,13.60
2023-02-18T11:47:38.084Z,17.80
2023-02-18T11:52:50.373Z,15.40
2023-02-18T11:58:06.251Z,8.70
2023-02-18T12:03:38.689Z,11.30
2023-02-18T12:25:26.745Z,12.50
2023-02-18T12:30:54.583Z,8.90
2023-02-18T12:36:27.935Z,7.20
2023-02-18T12:42:07.340Z,18.60
2023-02-18T12:47:40.851Z,8.10
2023-02-18T12:53:00.249Z,11.00
2023-02-18T12:58:33.082Z,21.40
2023-02-18T13:03:59.042Z,7.50
2023-02-18T13:10:21.571Z,10.10
2023-02-18T13:16:23.831Z,10.30
2023-02-18T13:21:30.735Z,57.00
2023-02-18T13:32:41.185Z,70.80
2023-02-18T13:38:00.650Z,62.50
2023-02-18T13:50:37.781Z,48.30
2023-02-18T14:18:14.145Z,35.30
2023-02-18T14:23:20.718Z,16.50
2023-02-18T14:36:15.122Z,60.30
2023-02-18T14:42:39.799Z,31.50
2023-02-18T14:48:14.146Z,48.00
2023-02-18T14:53:27.922Z,33.40
2023-02-18T14:58:39.464Z,28.30
2023-02-18T15:03:46.810Z,22.80
2023-02-18T15:08:55.627Z,39.40
2023-02-18T15:14:40.280Z,43.60
2023-02-18T15:19:56.257Z,31.90
2023-02-18T15:26:29.279Z,21.90
2023-02-18T15:31:39.496Z,34.70
2023-02-18T15:36:52.141Z,35.30
2023-02-18T15:50:16.949Z,26.30
2023-02-18T16:03:13.563Z,38.00
2023-02-18T16:08:28.354Z,41.70
2023-02-18T16:18:35.698Z,44.50
2023-02-18T16:23:56.817Z,76.40
2023-02-18T16:43:17.755Z,40.80
2023-02-18T16:49:13.800Z,24.40
2023-02-18T16:54:17.971Z,27.10
2023-02-18T16:59:22.411Z,51.30
2023-02-18T17:04:26.964Z,39.90
2023-02-18T17:09:32.244Z,23.80
2023-02-18T17:14:36.279Z,26.40
2023-02-18T17:19:46.348Z,28.60
2023-02-18T17:24:50.416Z,106.10
2023-02-18T17:29:54.125Z,90.00
2023-02-18T17:34:59.678Z,30.30
2023-02-18T17:40:13.532Z,21.40
2023-02-18T17:45:35.071Z,34.30
2023-02-18T17:50:38.865Z,29.10
2023-02-18T17:55:45.939Z,57.90
2023-02-18T18:00:57.783Z,30.00
2023-02-18T18:06:03.121Z,24.70
2023-02-18T18:11:11.294Z,14.60
2023-02-18T18:16:18.688Z,11.50
2023-02-18T18:21:35.897Z,24.00
2023-02-18T18:26:39.817Z,39.20
2023-02-18T18:31:45.901Z,15.80
2023-02-18T18:36:51.371Z,13.00
2023-02-18T18:41:56.368Z,14.90
2023-02-18T18:47:00.226Z,21.80
2023-02-18T18:52:17.501Z,22.50
2023-02-18T18:57:30.970Z,22.90
2023-02-18T19:02:44.504Z,15.20
2023-02-18T19:07:53.857Z,18.20
2023-02-18T19:13:39.680Z,18.10
2023-02-18T19:18:44.968Z,17.50
2023-02-18T19:30:58.899Z,10.90
2023-02-18T19:36:11.075Z,21.90
2023-02-18T19:41:19.789Z,15.60
2023-02-18T19:51:28.781Z,13.70
2023-02-18T19:56:32.616Z,10.70
2023-02-18T20:01:36.632Z,11.60
2023-02-18T20:07:06.122Z,8.00
2023-02-18T20:17:17.714Z,12.50
2023-02-18T20:22:21.507Z,8.40
2023-02-18T20:27:25.396Z,7.60
2023-02-18T20:32:29.276Z,8.10
2023-02-18T20:37:34.248Z,7.00
2023-02-18T20:42:39.399Z,5.70
2023-02-18T20:47:43.494Z,4.70
2023-02-18T20:52:47.264Z,5.20
2023-02-18T20:57:51.729Z,10.60
2023-02-18T21:02:55.548Z,8.90
2023-02-18T21:07:59.341Z,5.30
2023-02-18T21:13:03.119Z,5.30
2023-02-18T21:18:06.852Z,6.30
2023-02-18T21:23:12.348Z,6.30
2023-02-18T21:28:42.125Z,12.60
2023-02-18T21:34:13.464Z,10.30
2023-02-18T21:39:17.186Z,7.20
2023-02-18T21:44:24.996Z,9.10
2023-02-18T21:49:34.140Z,7.30
2023-02-18T22:00:36.298Z,7.30
2023-02-18T22:05:42.700Z,6.60
2023-02-18T22:10:46.819Z,12.50
2023-02-18T22:15:58.018Z,15.90
2023-02-18T22:21:10.005Z,14.40
2023-02-18T22:26:14.472Z,8.90
2023-02-18T22:31:18.634Z,17.90
2023-02-18T22:36:25.058Z,22.00
2023-02-18T22:41:31.768Z,17.10
2023-02-18T22:47:44.065Z,16.50
2023-02-18T22:53:03.132Z,18.10
2023-02-18T22:58:06.906Z,16.50
2023-02-18T23:03:10.683Z,13.80
2023-02-18T23:08:14.507Z,14.80
2023-02-18T23:13:18.280Z,12.10
2023-02-18T23:18:22.104Z,5.60
2023-02-18T23:23:25.830Z,6.70
2023-02-18T23:28:29.556Z,5.30
2023-02-18T23:33:33.383Z,4.50
2023-02-18T23:38:37.338Z,4.50
2023-02-18T23:50:47.806Z,9.20
2023-02-18T23:56:06.933Z,14.20
